РПИ Якутск

Сквоки, район применения ICAO EUR-I:

Чульман 3240-3257

Мирный 0510-0527

Олекминск 0501-0504

Якутск 0505-0507, 3220-3237 

Лого Якутск
Руководитель РПИ

Sergey Balandin*

Инструкторы РПИ
Ivan Aksenenko (Instructor)
Sergey Balandin (Senior Instructor)
Входит в состав
ЗЦ Хабаровск

Диспетчеры РПИ

Диспетчер Рейтинг Допуски *
Sergey Balandin Senior Instructor UEEE_CTR

Аэропорты РПИ

ICAO Город Название Погода
UERL Ленск Ленск
UERR Мирный Мирный UERR 020200Z 17005MPS 9999 SCT040 27/10 Q1001 R07/CLRD60 NOSIG RMK QFE721/0961
UELL Нерюнгри Чульман
UEST Тикси Тикси
UERP Удачный Полярный UERP 020200Z 16003MPS CAVOK 22/10 Q1001 RMK QFE707
UESS Черский Черский
UEEE Якутск Якутск UEEE 020200Z 11003MPS CAVOK 26/12 Q1005 R23L/09//60 NOSIG RMK QFE745
UEMU Усть-Мая Усть-Мая